KPNC/PNC METAR and TAF weather

Enter ICAO airport designator
Station Type Date Time Source
KPNC METAR 2022/07/01 00:53 UTC NOAA

KPNC 010053Z AUTO 16013KT 10SM CLR 33/16 A2991 RMK AO2 SLP114 T03280156


Station Type Date Time Source
KPNC Decoded METAR 2022/07/01 00:53 UTC NOAA

PONCA CITY MUNICIPAL AIRPORT, OK, United States (KPNC) 36-44N 97-06W 308M
Jun 30, 2022 - 08:53 PM EDT / 2022.07.01 0053 UTC
Wind: from the SSE (160 degrees) at 15 MPH (13 KT):0
Visibility: 10 mile(s):0
Sky conditions: clear
Temperature: 91.0 F (32.8 C)
Dew Point: 60.1 F (15.6 C)
Relative Humidity: 35%
Pressure (altimeter): 29.91 in. Hg (1012 hPa)
ob: KPNC 010053Z AUTO 16013KT 10SM CLR 33/16 A2991 RMK AO2 SLP114 T03280156
cycle: 1

Station Type Date Time Source
KPNC TAF 2022/06/30 18:22 UTC NOAA

TAF KPNC 301720Z 3018/0118 19010G15KT P6SM SKC
FM010200 15010KT P6SM SKC

Example: see airport list